Kahuku, HI (96731)

12:35 AM HST on February 07, 2016 (GMT -1000)
Mililani Mauka | | Change Station
CLOSE
Current Station
Personal Weather Station
Location: Mililani, HI
Elevation: 961 ft
Nearby Weather Stations

Elev 961 ft 21.48 °N, 157.99 °W | Updated 7 minutes ago

Scattered Clouds
Scattered Clouds
63.7 °F
Feels Like 63.7 °F
N
7.3
Wind Variable Wind from WNW

Today
High -- | Low -- °F
--% Chance of Precip.
Yesterday
High -- | Low -- °F
Precip. -- in
Pressure 29.99 in
Visibility 10.0 miles
Clouds Few 2100 ft
Scattered Clouds 2800 ft
Dew Point 62 °F
Humidity 95%
Rainfall 0.00 in
Snow Depth Not available.
7:07 AM 6:24 PM
Waning Crescent, 2% visible
METAR PHHI 070958Z AUTO 33011KT 10SM FEW021 SCT028 18/17 A3000 RMK AO2 DZE05RAB05E06RAB07E08RAB09E38DZB38E45 SLP153 P0003 T01800172 402440177 $
Pressure 29.99 in
Visibility 10.0 miles
Clouds Few 2100 ft
Scattered Clouds 2800 ft
Dew Point 62 °F
Humidity 95%
Rainfall 0.00 in
Snow Depth Not available.
7:07 AM 6:24 PM
Waning Crescent, 2% visible
METAR PHHI 070958Z AUTO 33011KT 10SM FEW021 SCT028 18/17 A3000 RMK AO2 DZE05RAB05E06RAB07E08RAB09E38DZB38E45 SLP153 P0003 T01800172 402440177 $

10-Day Weather Forecast

Almanac

Astronomy

Feb. 07, 2016 Rise Set
Actual Time
Civil Twilight
Nautical Twilight
Astronomical Twilight
Moon
Length of Visible Light
Length of Day
Tomorrow will be .
, % of the Moon is Illuminated

Today's Extremes

State Highs State Lows

Community

WunderPhotos

Upload Photos

1,891,171 photos uploaded!

WunderBlog® & News

Nearby

Air Quality

  Air Quality AQ Index Pollutant
Not available.

Snow Depth

Station Depth Elevation

Earthquake Activity

City Distance Mag. Time & Date
Minimum magnitude displayed is 2.5.

Coastal Water Temperatures

Place Temperature

Stations

Nearby Weather Stations

Station Location Temp. Windchill Dew Point Humidity Wind Precip. Elev Updated Type
                   

Watches & Warnings

There are currently no watches in effect.